KLBT

Lumberton Regional Airport

Lumberton, North Carolina, USA
METAR KLBT 220954Z AUTO 20003KT 7SM CLR 21/20 A3012 RMK AO2 SLP196 T02060200
Observed Flight Rules
May-22 @ 09:54 UTC (21 minutes ago) Visual Flight Rules
Wind Visibility Clouds
200° at 3 knots 7 miles
  • Clear skies
Temperatures Readings
Current 21°C / 70°F
Dewpoint 20°C / 68°F
Humidity 94%
Altimeter 30.12" Hg
Pressure 1019.6 hPa
Elevation 37
METAR KLBT 220954Z AUTO 20003KT 7SM CLR 21/20 A3012 RMK AO2 SLP196 T02060200
Observed Flight Rules
May-22 @ 09:54 UTC
(21 minutes ago)
VFR
Wind Visibility
200° at 3 knots 7 miles
Clouds
  • Clear skies
Temperature Dewpoint
21°C / 70°F 20°C / 68°F
Humidity Altimeter Pressure
94% 30.12" Hg 1019.6 hPa